M/V Polaris Melody — 3FHJ9 — position and weather

sailwx.info

Track history (hours):
 
Tides and Currents Weather Stations Pressure Air Temp Water Temp Dewpoint Dewpoint Depression Visibility Wind Speed Wind Dir Waves Ship Positions

M/V Polaris Melody

Last reported at 2017-Sep-26 22:00 UTC. Time now 2017-Sep-26 22:04 UTC.
Position N 37°07' W 009°38'.

Length 180 m; draft 10.8 m.

Type: Cargo ship. MMSI: 370734000.

Date/timePositionNaut miles runAvg speedWind from/ knotsBaromVisibWave heightAir tempDewpointWater temp
2017-Sep-26 22:00N 37°07' W 009°38'612.2
2017-Sep-26 21:30N 37°13' W 009°40'611.8
2017-Sep-26 21:00N 37°18' W 009°41'612.0
2017-Sep-26 20:30N 37°24' W 009°43'611.9
2017-Sep-26 20:00N 37°30' W 009°45'612.9
2017-Sep-26 19:30N 37°36' W 009°47'612.4
2017-Sep-26 19:00N 37°42' W 009°49'611.9
2017-Sep-26 18:30N 37°48' W 009°50'612.2
2017-Sep-26 18:00N 37°54' W 009°51'612.1
2017-Sep-26 17:30N 38°00' W 009°53'611.8
2017-Sep-26 17:00N 38°06' W 009°55'612.2
2017-Sep-26 16:30N 38°12' W 009°57'612.4
2017-Sep-26 16:00N 38°18' W 009°59'612.9
2017-Sep-26 15:30N 38°24' W 010°01'713.1
2017-Sep-26 15:00N 38°30' W 010°02'612.8
2017-Sep-26 14:30N 38°36' W 010°04'612.8
2017-Sep-26 14:00N 38°43' W 010°06'612.7
2017-Sep-26 13:30N 38°49' W 010°06'612.8
2017-Sep-26 13:00N 38°55' W 010°06'612.3
2017-Sep-26 12:31N 39°02' W 010°06'612.1
2017-Sep-26 12:00N 39°08' W 010°06'611.9
2017-Sep-26 11:30N 39°14' W 010°06'611.5
2017-Sep-26 11:00N 39°19' W 010°06'611.4
2017-Sep-26 10:30N 39°25' W 010°06'611.9
2017-Sep-26 10:00N 39°31' W 010°06'611.4
2017-Sep-26 09:30N 39°37' W 010°06'611.5
2017-Sep-26 09:00N 39°43' W 010°06'611.5
2017-Sep-26 08:30N 39°48' W 010°06'611.5
2017-Sep-26 08:00N 39°54' W 010°06'611.7
2017-Sep-26 07:30N 39°60' W 010°06'711.6
2017-Sep-26 06:54N 40°07' W 010°06'  
2017-Sep-24 02:07N 48°50' W 005°51'1310.0
2017-Sep-24 00:49N 48°59' W 005°36'311.0
2017-Sep-24 00:30N 49°00' W 005°32'611.8
2017-Sep-23 23:58N 49°03' W 005°23'611.4
2017-Sep-23 23:29N 49°06' W 005°16'511.6
2017-Sep-23 23:00N 49°09' W 005°09'711.3
2017-Sep-23 22:23N 49°13' W 004°59'410.5
2017-Sep-23 22:00N 49°15' W 004°54'510.5
2017-Sep-23 21:30N 49°17' W 004°47'510.0
2017-Sep-23 21:00N 49°20' W 004°40'7 9.4
2017-Sep-23 20:17N 49°23' W 004°32'5 8.9
2017-Sep-23 19:43N 49°26' W 004°25'  
2017-Sep-20 20:21N 57°59' E 008°44'411.6
2017-Sep-20 20:00N 58°02' E 008°48'611.9
2017-Sep-20 19:31N 58°07' E 008°56'612.2
2017-Sep-20 19:00N 58°12' E 009°03'612.3
2017-Sep-20 18:30N 58°16' E 009°11'1811.9
2017-Sep-20 16:58N 58°30' E 009°33'511.7
2017-Sep-20 16:30N 58°36' E 009°36'611.8
2017-Sep-20 16:01N 58°41' E 009°39'612.3
2017-Sep-20 15:30N 58°47' E 009°42'612.3
2017-Sep-20 15:00N 58°53' E 009°45'9 8.8
2017-Sep-20 14:00N 59°02' E 009°46'4 7.4
2017-Sep-20 13:30N 59°03' E 009°40'4 7.1
2017-Sep-20 13:00N 59°07' E 009°37'1 1.4
2017-Sep-20 12:28N 59°07' E 009°37'0 0.0
2017-Sep-20 11:58N 59°07' E 009°37'0 0.0
2017-Sep-20 11:28N 59°07' E 009°37'0 0.0
2017-Sep-20 10:58N 59°07' E 009°37'0 0.0
2017-Sep-20 10:28N 59°07' E 009°37'0 0.0
2017-Sep-20 09:58N 59°07' E 009°37'0 0.0
2017-Sep-20 09:28N 59°07' E 009°37'0 0.0
2017-Sep-20 08:58N 59°07' E 009°37'0 0.0
2017-Sep-20 08:28N 59°07' E 009°37'0 0.0
2017-Sep-20 07:58N 59°07' E 009°37'0 0.0
2017-Sep-20 07:28N 59°07' E 009°37'0 0.0
2017-Sep-20 06:58N 59°07' E 009°37'0 0.0
2017-Sep-20 06:28N 59°07' E 009°37'0 0.0
2017-Sep-20 05:58N 59°07' E 009°37'0 0.0
2017-Sep-20 05:28N 59°07' E 009°37'0 0.0
2017-Sep-20 04:58N 59°07' E 009°37'0 0.0
2017-Sep-20 04:28N 59°07' E 009°37'0 0.0
2017-Sep-20 03:58N 59°07' E 009°37'0 0.0
2017-Sep-20 03:28N 59°07' E 009°37'0 0.0
2017-Sep-20 02:58N 59°07' E 009°37'0 0.0
2017-Sep-20 02:28N 59°07' E 009°37'0 0.0
2017-Sep-20 01:58N 59°07' E 009°37'0 0.0
2017-Sep-20 01:28N 59°07' E 009°37'0 0.0
2017-Sep-20 00:58N 59°07' E 009°37'0 0.0
2017-Sep-20 00:28N 59°07' E 009°37'0 0.0
2017-Sep-19 23:58N 59°07' E 009°37'0 0.0
2017-Sep-19 23:28N 59°07' E 009°37'0 0.0
2017-Sep-19 22:58N 59°07' E 009°37'0 0.0
2017-Sep-19 22:28N 59°07' E 009°37'0 0.0
2017-Sep-19 21:58N 59°07' E 009°37'0 0.0
2017-Sep-19 21:28N 59°07' E 009°37'0 0.0
2017-Sep-19 20:58N 59°07' E 009°37'0 0.0
2017-Sep-19 20:28N 59°07' E 009°37'0 0.0
2017-Sep-19 19:58N 59°07' E 009°37'0 0.0
2017-Sep-19 19:28N 59°07' E 009°37'0 0.0
2017-Sep-19 18:58N 59°07' E 009°37'0 0.0
2017-Sep-19 18:28N 59°07' E 009°37'0 0.0
2017-Sep-19 17:58N 59°07' E 009°37'0 0.0
2017-Sep-19 17:28N 59°07' E 009°37'0 0.0
2017-Sep-19 16:58N 59°07' E 009°37'0 0.0
2017-Sep-19 16:28N 59°07' E 009°37'0 0.0
2017-Sep-19 15:58N 59°07' E 009°37'0 0.0
2017-Sep-19 15:28N 59°07' E 009°37'0 0.0
2017-Sep-19 14:58N 59°07' E 009°37'0 0.0
2017-Sep-19 14:28N 59°07' E 009°37'0 0.0
2017-Sep-19 13:58N 59°07' E 009°37'0 0.0
2017-Sep-19 13:28N 59°07' E 009°37'0 0.0
2017-Sep-19 12:58N 59°07' E 009°37'0 0.0
2017-Sep-19 12:22N 59°07' E 009°37'0 0.0
2017-Sep-19 11:58N 59°07' E 009°37'0 0.0
2017-Sep-19 11:28N 59°07' E 009°37'0 0.0
2017-Sep-19 10:58N 59°07' E 009°37'0 0.0
2017-Sep-19 10:28N 59°07' E 009°37'0 0.0
2017-Sep-19 09:58N 59°07' E 009°37'0 0.0
2017-Sep-19 09:28N 59°07' E 009°37'0 0.0
2017-Sep-19 08:58N 59°07' E 009°37'0 0.0
2017-Sep-19 08:28N 59°07' E 009°37'0 0.0
2017-Sep-19 07:58N 59°07' E 009°37'0 0.0
2017-Sep-19 07:28N 59°07' E 009°37'0 0.0
2017-Sep-19 06:58N 59°07' E 009°37'0 0.0
2017-Sep-19 06:28N 59°07' E 009°37'0 0.0
2017-Sep-19 05:58N 59°07' E 009°37'0 0.0
2017-Sep-19 05:28N 59°07' E 009°37'0 0.0
2017-Sep-19 04:58N 59°07' E 009°37'0 0.0
2017-Sep-19 04:28N 59°07' E 009°37'0 0.0
2017-Sep-19 03:58N 59°07' E 009°37'0 0.0
2017-Sep-19 03:28N 59°07' E 009°37'0 0.0
2017-Sep-19 02:58N 59°07' E 009°37'0 0.0
2017-Sep-19 02:28N 59°07' E 009°37'0 0.0
2017-Sep-19 01:58N 59°07' E 009°37'0 0.0
2017-Sep-19 01:28N 59°07' E 009°37'0 0.0
2017-Sep-19 00:58N 59°07' E 009°37'0 0.0
2017-Sep-19 00:28N 59°07' E 009°37'0 0.0
2017-Sep-18 23:58N 59°07' E 009°37'0 0.0
2017-Sep-18 23:28N 59°07' E 009°37'0 0.0
2017-Sep-18 22:58N 59°07' E 009°37'0 0.0
2017-Sep-18 22:28N 59°07' E 009°37'0 0.0
2017-Sep-18 21:58N 59°07' E 009°37'0 0.0
2017-Sep-18 21:28N 59°07' E 009°37'0 0.0
2017-Sep-18 20:58N 59°07' E 009°37'0 0.0
2017-Sep-18 20:28N 59°07' E 009°37'0 0.0
2017-Sep-18 19:58N 59°07' E 009°37'0 0.0
2017-Sep-18 19:28N 59°07' E 009°37'0 0.0
2017-Sep-18 18:58N 59°07' E 009°37'0 0.0
2017-Sep-18 18:28N 59°07' E 009°37'0 0.0
2017-Sep-18 17:58N 59°07' E 009°37'0 0.0
2017-Sep-18 17:28N 59°07' E 009°37'0 0.0
2017-Sep-18 16:58N 59°07' E 009°37'0 0.0
2017-Sep-18 16:28N 59°07' E 009°37'0 0.0
2017-Sep-18 15:58N 59°07' E 009°37'0 0.0
2017-Sep-18 15:28N 59°07' E 009°37'0 0.0
2017-Sep-18 14:58N 59°07' E 009°37'0 0.0
2017-Sep-18 14:28N 59°07' E 009°37'0 0.0
2017-Sep-18 13:58N 59°07' E 009°37'0 0.0
2017-Sep-18 13:28N 59°07' E 009°37'0 0.0
2017-Sep-18 12:58N 59°07' E 009°37'0 0.0
2017-Sep-18 12:28N 59°07' E 009°37'0 0.0
2017-Sep-18 11:58N 59°07' E 009°37'0 0.0
2017-Sep-18 11:28N 59°07' E 009°37'0 0.0
2017-Sep-18 10:55N 59°07' E 009°37'0 0.0
2017-Sep-18 10:28N 59°07' E 009°37'0 0.0
2017-Sep-18 09:58N 59°07' E 009°37'0 0.0
2017-Sep-18 09:28N 59°07' E 009°37'0 0.0
2017-Sep-18 08:58N 59°07' E 009°37'0 0.0
2017-Sep-18 08:28N 59°07' E 009°37'0 0.0
2017-Sep-18 07:58N 59°07' E 009°37'0 0.0
2017-Sep-18 07:28N 59°07' E 009°37'0 0.0
2017-Sep-18 06:58N 59°07' E 009°37'0 0.0
2017-Sep-18 06:28N 59°07' E 009°37'0 0.0
2017-Sep-18 05:58N 59°07' E 009°37'0 0.0
2017-Sep-18 05:28N 59°07' E 009°37'0 0.0
2017-Sep-18 04:58N 59°07' E 009°37'0 0.0
2017-Sep-18 04:28N 59°07' E 009°37'0 0.0
2017-Sep-18 03:58N 59°07' E 009°37'0 0.0
2017-Sep-18 03:28N 59°07' E 009°37'0 0.0
2017-Sep-18 02:58N 59°07' E 009°37'0 0.0
2017-Sep-18 02:28N 59°07' E 009°37'0 0.0
2017-Sep-18 01:58N 59°07' E 009°37'0 0.0
2017-Sep-18 01:28N 59°07' E 009°37'0 0.0
2017-Sep-18 00:58N 59°07' E 009°37'0 0.0
2017-Sep-18 00:28N 59°07' E 009°37'0 0.0
2017-Sep-17 23:58N 59°07' E 009°37'0 0.0
2017-Sep-17 23:28N 59°07' E 009°37'0 0.0
2017-Sep-17 22:58N 59°07' E 009°37'0 0.0
2017-Sep-17 22:28N 59°07' E 009°37'0 0.0
2017-Sep-17 21:58N 59°07' E 009°37'0 0.0
2017-Sep-17 21:28N 59°07' E 009°37'0 0.0
2017-Sep-17 20:58N 59°07' E 009°37'0 0.0
2017-Sep-17 20:28N 59°07' E 009°37'0 0.0
2017-Sep-17 19:58N 59°07' E 009°37'0 0.0
2017-Sep-17 19:28N 59°07' E 009°37'0 0.0
2017-Sep-17 18:58N 59°07' E 009°37'0 0.0
2017-Sep-17 18:28N 59°07' E 009°37'0 0.0
2017-Sep-17 17:58N 59°07' E 009°37'0 0.0
2017-Sep-17 17:28N 59°07' E 009°37'0 0.0
2017-Sep-17 16:58N 59°07' E 009°37'0 0.0
2017-Sep-17 16:28N 59°07' E 009°37'0 0.0
2017-Sep-17 15:58N 59°07' E 009°37'0 0.0
2017-Sep-17 15:28N 59°07' E 009°37'0 0.0
2017-Sep-17 14:58N 59°07' E 009°37'0 0.0
2017-Sep-17 14:28N 59°07' E 009°37'0 0.0
2017-Sep-17 13:58N 59°07' E 009°37'0 0.0
2017-Sep-17 13:28N 59°07' E 009°37'0 0.0
2017-Sep-17 12:58N 59°07' E 009°37'0 0.0
2017-Sep-17 12:28N 59°07' E 009°37'0 0.0
2017-Sep-17 11:58N 59°07' E 009°37'0 0.0
2017-Sep-17 11:28N 59°07' E 009°37'0 0.0
2017-Sep-17 10:58N 59°07' E 009°37'0 0.0
2017-Sep-17 10:28N 59°07' E 009°37'0 0.0
2017-Sep-17 09:58N 59°07' E 009°37'0 0.0
2017-Sep-17 09:28N 59°07' E 009°37'0 0.0
2017-Sep-17 08:58N 59°07' E 009°37'0 0.0
2017-Sep-17 08:28N 59°07' E 009°37'0 0.0
2017-Sep-17 07:58N 59°07' E 009°37'0 0.0
2017-Sep-17 07:28N 59°07' E 009°37'0 0.0
2017-Sep-17 06:58N 59°07' E 009°37'0 0.0
2017-Sep-17 06:28N 59°07' E 009°37'0 0.0
2017-Sep-17 05:58N 59°07' E 009°37'0 0.0
2017-Sep-17 05:28N 59°07' E 009°37'0 0.0
2017-Sep-17 04:58N 59°07' E 009°37'0 0.0
2017-Sep-17 04:28N 59°07' E 009°37'0 0.0
2017-Sep-17 03:58N 59°07' E 009°37'0 0.0
2017-Sep-17 03:28N 59°07' E 009°37'0 0.0
2017-Sep-17 02:58N 59°07' E 009°37'0 0.0
2017-Sep-17 02:28N 59°07' E 009°37'0 0.0
2017-Sep-17 01:58N 59°07' E 009°37'0 0.0
2017-Sep-17 01:28N 59°07' E 009°37'0 0.0
2017-Sep-17 00:58N 59°07' E 009°37'0 0.0
2017-Sep-17 00:28N 59°07' E 009°37'0 0.0
2017-Sep-16 23:58N 59°07' E 009°37'0 0.0
2017-Sep-16 23:28N 59°07' E 009°37'0 0.0
2017-Sep-16 22:58N 59°07' E 009°37'0 0.0
2017-Sep-16 22:28N 59°07' E 009°37'  
Track history (hours):
 
Tides and Currents Weather Stations Pressure Air Temp Water Temp Dewpoint Dewpoint Depression Visibility Wind Speed Wind Dir Waves Ship Positions

M/V Polaris Melody

Last reported at 2017-Sep-26 22:00 UTC. Time now 2017-Sep-26 22:04 UTC.
Position N 37°07' W 009°38'.

Length 180 m; draft 10.8 m.

Type: Cargo ship. MMSI: 370734000.

Date/timePositionNaut miles runAvg speedWind from/ knotsBaromVisibWave heightAir tempDewpointWater temp
2017-Sep-26 22:00N 37°07' W 009°38'612.2
2017-Sep-26 21:30N 37°13' W 009°40'611.8
2017-Sep-26 21:00N 37°18' W 009°41'612.0
2017-Sep-26 20:30N 37°24' W 009°43'611.9
2017-Sep-26 20:00N 37°30' W 009°45'612.9
2017-Sep-26 19:30N 37°36' W 009°47'612.4
2017-Sep-26 19:00N 37°42' W 009°49'611.9
2017-Sep-26 18:30N 37°48' W 009°50'612.2
2017-Sep-26 18:00N 37°54' W 009°51'612.1
2017-Sep-26 17:30N 38°00' W 009°53'611.8
2017-Sep-26 17:00N 38°06' W 009°55'612.2
2017-Sep-26 16:30N 38°12' W 009°57'612.4
2017-Sep-26 16:00N 38°18' W 009°59'612.9
2017-Sep-26 15:30N 38°24' W 010°01'713.1
2017-Sep-26 15:00N 38°30' W 010°02'612.8
2017-Sep-26 14:30N 38°36' W 010°04'612.8
2017-Sep-26 14:00N 38°43' W 010°06'612.7
2017-Sep-26 13:30N 38°49' W 010°06'612.8
2017-Sep-26 13:00N 38°55' W 010°06'612.3
2017-Sep-26 12:31N 39°02' W 010°06'612.1
2017-Sep-26 12:00N 39°08' W 010°06'611.9
2017-Sep-26 11:30N 39°14' W 010°06'611.5
2017-Sep-26 11:00N 39°19' W 010°06'611.4
2017-Sep-26 10:30N 39°25' W 010°06'611.9
2017-Sep-26 10:00N 39°31' W 010°06'611.4
2017-Sep-26 09:30N 39°37' W 010°06'611.5
2017-Sep-26 09:00N 39°43' W 010°06'611.5
2017-Sep-26 08:30N 39°48' W 010°06'611.5
2017-Sep-26 08:00N 39°54' W 010°06'611.7
2017-Sep-26 07:30N 39°60' W 010°06'711.6
2017-Sep-26 06:54N 40°07' W 010°06'  
2017-Sep-24 02:07N 48°50' W 005°51'1310.0
2017-Sep-24 00:49N 48°59' W 005°36'311.0
2017-Sep-24 00:30N 49°00' W 005°32'611.8
2017-Sep-23 23:58N 49°03' W 005°23'611.4
2017-Sep-23 23:29N 49°06' W 005°16'511.6
2017-Sep-23 23:00N 49°09' W 005°09'711.3
2017-Sep-23 22:23N 49°13' W 004°59'410.5
2017-Sep-23 22:00N 49°15' W 004°54'510.5
2017-Sep-23 21:30N 49°17' W 004°47'510.0
2017-Sep-23 21:00N 49°20' W 004°40'7 9.4
2017-Sep-23 20:17N 49°23' W 004°32'5 8.9
2017-Sep-23 19:43N 49°26' W 004°25'  
2017-Sep-20 20:21N 57°59' E 008°44'411.6
2017-Sep-20 20:00N 58°02' E 008°48'611.9
2017-Sep-20 19:31N 58°07' E 008°56'612.2
2017-Sep-20 19:00N 58°12' E 009°03'612.3
2017-Sep-20 18:30N 58°16' E 009°11'1811.9
2017-Sep-20 16:58N 58°30' E 009°33'511.7
2017-Sep-20 16:30N 58°36' E 009°36'611.8
2017-Sep-20 16:01N 58°41' E 009°39'612.3
2017-Sep-20 15:30N 58°47' E 009°42'612.3
2017-Sep-20 15:00N 58°53' E 009°45'9 8.8
2017-Sep-20 14:00N 59°02' E 009°46'4 7.4
2017-Sep-20 13:30N 59°03' E 009°40'4 7.1
2017-Sep-20 13:00N 59°07' E 009°37'1 1.4
2017-Sep-20 12:28N 59°07' E 009°37'0 0.0
2017-Sep-20 11:58N 59°07' E 009°37'0 0.0
2017-Sep-20 11:28N 59°07' E 009°37'0 0.0
2017-Sep-20 10:58N 59°07' E 009°37'0 0.0
2017-Sep-20 10:28N 59°07' E 009°37'0 0.0
2017-Sep-20 09:58N 59°07' E 009°37'0 0.0
2017-Sep-20 09:28N 59°07' E 009°37'0 0.0
2017-Sep-20 08:58N 59°07' E 009°37'0 0.0
2017-Sep-20 08:28N 59°07' E 009°37'0 0.0
2017-Sep-20 07:58N 59°07' E 009°37'0 0.0
2017-Sep-20 07:28N 59°07' E 009°37'0 0.0
2017-Sep-20 06:58N 59°07' E 009°37'0 0.0
2017-Sep-20 06:28N 59°07' E 009°37'0 0.0
2017-Sep-20 05:58N 59°07' E 009°37'0 0.0
2017-Sep-20 05:28N 59°07' E 009°37'0 0.0
2017-Sep-20 04:58N 59°07' E 009°37'0 0.0
2017-Sep-20 04:28N 59°07' E 009°37'0 0.0
2017-Sep-20 03:58N 59°07' E 009°37'0 0.0
2017-Sep-20 03:28N 59°07' E 009°37'0 0.0
2017-Sep-20 02:58N 59°07' E 009°37'0 0.0
2017-Sep-20 02:28N 59°07' E 009°37'0 0.0
2017-Sep-20 01:58N 59°07' E 009°37'0 0.0
2017-Sep-20 01:28N 59°07' E 009°37'0 0.0
2017-Sep-20 00:58N 59°07' E 009°37'0 0.0
2017-Sep-20 00:28N 59°07' E 009°37'0 0.0
2017-Sep-19 23:58N 59°07' E 009°37'0 0.0
2017-Sep-19 23:28N 59°07' E 009°37'0 0.0
2017-Sep-19 22:58N 59°07' E 009°37'0 0.0
2017-Sep-19 22:28N 59°07' E 009°37'0 0.0
2017-Sep-19 21:58N 59°07' E 009°37'0 0.0
2017-Sep-19 21:28N 59°07' E 009°37'0 0.0
2017-Sep-19 20:58N 59°07' E 009°37'0 0.0
2017-Sep-19 20:28N 59°07' E 009°37'0 0.0
2017-Sep-19 19:58N 59°07' E 009°37'0 0.0
2017-Sep-19 19:28N 59°07' E 009°37'0 0.0
2017-Sep-19 18:58N 59°07' E 009°37'0 0.0
2017-Sep-19 18:28N 59°07' E 009°37'0 0.0
2017-Sep-19 17:58N 59°07' E 009°37'0 0.0
2017-Sep-19 17:28N 59°07' E 009°37'0 0.0
2017-Sep-19 16:58N 59°07' E 009°37'0 0.0
2017-Sep-19 16:28N 59°07' E 009°37'0 0.0
2017-Sep-19 15:58N 59°07' E 009°37'0 0.0
2017-Sep-19 15:28N 59°07' E 009°37'0 0.0
2017-Sep-19 14:58N 59°07' E 009°37'0 0.0
2017-Sep-19 14:28N 59°07' E 009°37'0 0.0
2017-Sep-19 13:58N 59°07' E 009°37'0 0.0
2017-Sep-19 13:28N 59°07' E 009°37'0 0.0
2017-Sep-19 12:58N 59°07' E 009°37'0 0.0
2017-Sep-19 12:22N 59°07' E 009°37'0 0.0
2017-Sep-19 11:58N 59°07' E 009°37'0 0.0
2017-Sep-19 11:28N 59°07' E 009°37'0 0.0
2017-Sep-19 10:58N 59°07' E 009°37'0 0.0
2017-Sep-19 10:28N 59°07' E 009°37'0 0.0
2017-Sep-19 09:58N 59°07' E 009°37'0 0.0
2017-Sep-19 09:28N 59°07' E 009°37'0 0.0
2017-Sep-19 08:58N 59°07' E 009°37'0 0.0
2017-Sep-19 08:28N 59°07' E 009°37'0 0.0
2017-Sep-19 07:58N 59°07' E 009°37'0 0.0
2017-Sep-19 07:28N 59°07' E 009°37'0 0.0
2017-Sep-19 06:58N 59°07' E 009°37'0 0.0
2017-Sep-19 06:28N 59°07' E 009°37'0 0.0
2017-Sep-19 05:58N 59°07' E 009°37'0 0.0
2017-Sep-19 05:28N 59°07' E 009°37'0 0.0
2017-Sep-19 04:58N 59°07' E 009°37'0 0.0
2017-Sep-19 04:28N 59°07' E 009°37'0 0.0
2017-Sep-19 03:58N 59°07' E 009°37'0 0.0
2017-Sep-19 03:28N 59°07' E 009°37'0 0.0
2017-Sep-19 02:58N 59°07' E 009°37'0 0.0
2017-Sep-19 02:28N 59°07' E 009°37'0 0.0
2017-Sep-19 01:58N 59°07' E 009°37'0 0.0
2017-Sep-19 01:28N 59°07' E 009°37'0 0.0
2017-Sep-19 00:58N 59°07' E 009°37'0 0.0
2017-Sep-19 00:28N 59°07' E 009°37'0 0.0
2017-Sep-18 23:58N 59°07' E 009°37'0 0.0
2017-Sep-18 23:28N 59°07' E 009°37'0 0.0
2017-Sep-18 22:58N 59°07' E 009°37'0 0.0
2017-Sep-18 22:28N 59°07' E 009°37'0 0.0
2017-Sep-18 21:58N 59°07' E 009°37'0 0.0
2017-Sep-18 21:28N 59°07' E 009°37'0 0.0
2017-Sep-18 20:58N 59°07' E 009°37'0 0.0
2017-Sep-18 20:28N 59°07' E 009°37'0 0.0
2017-Sep-18 19:58N 59°07' E 009°37'0 0.0
2017-Sep-18 19:28N 59°07' E 009°37'0 0.0
2017-Sep-18 18:58N 59°07' E 009°37'0 0.0
2017-Sep-18 18:28N 59°07' E 009°37'0 0.0
2017-Sep-18 17:58N 59°07' E 009°37'0 0.0
2017-Sep-18 17:28N 59°07' E 009°37'0 0.0
2017-Sep-18 16:58N 59°07' E 009°37'0 0.0
2017-Sep-18 16:28N 59°07' E 009°37'0 0.0
2017-Sep-18 15:58N 59°07' E 009°37'0 0.0
2017-Sep-18 15:28N 59°07' E 009°37'0 0.0
2017-Sep-18 14:58N 59°07' E 009°37'0 0.0
2017-Sep-18 14:28N 59°07' E 009°37'0 0.0
2017-Sep-18 13:58N 59°07' E 009°37'0 0.0
2017-Sep-18 13:28N 59°07' E 009°37'0 0.0
2017-Sep-18 12:58N 59°07' E 009°37'0 0.0
2017-Sep-18 12:28N 59°07' E 009°37'0 0.0
2017-Sep-18 11:58N 59°07' E 009°37'0 0.0
2017-Sep-18 11:28N 59°07' E 009°37'0 0.0
2017-Sep-18 10:55N 59°07' E 009°37'0 0.0
2017-Sep-18 10:28N 59°07' E 009°37'0 0.0
2017-Sep-18 09:58N 59°07' E 009°37'0 0.0
2017-Sep-18 09:28N 59°07' E 009°37'0 0.0
2017-Sep-18 08:58N 59°07' E 009°37'0 0.0
2017-Sep-18 08:28N 59°07' E 009°37'0 0.0
2017-Sep-18 07:58N 59°07' E 009°37'0 0.0
2017-Sep-18 07:28N 59°07' E 009°37'0 0.0
2017-Sep-18 06:58N 59°07' E 009°37'0 0.0
2017-Sep-18 06:28N 59°07' E 009°37'0 0.0
2017-Sep-18 05:58N 59°07' E 009°37'0 0.0
2017-Sep-18 05:28N 59°07' E 009°37'0 0.0
2017-Sep-18 04:58N 59°07' E 009°37'0 0.0
2017-Sep-18 04:28N 59°07' E 009°37'0 0.0
2017-Sep-18 03:58N 59°07' E 009°37'0 0.0
2017-Sep-18 03:28N 59°07' E 009°37'0 0.0
2017-Sep-18 02:58N 59°07' E 009°37'0 0.0
2017-Sep-18 02:28N 59°07' E 009°37'0 0.0
2017-Sep-18 01:58N 59°07' E 009°37'0 0.0
2017-Sep-18 01:28N 59°07' E 009°37'0 0.0
2017-Sep-18 00:58N 59°07' E 009°37'0 0.0
2017-Sep-18 00:28N 59°07' E 009°37'0 0.0
2017-Sep-17 23:58N 59°07' E 009°37'0 0.0
2017-Sep-17 23:28N 59°07' E 009°37'0 0.0
2017-Sep-17 22:58N 59°07' E 009°37'0 0.0
2017-Sep-17 22:28N 59°07' E 009°37'0 0.0
2017-Sep-17 21:58N 59°07' E 009°37'0 0.0
2017-Sep-17 21:28N 59°07' E 009°37'0 0.0
2017-Sep-17 20:58N 59°07' E 009°37'0 0.0
2017-Sep-17 20:28N 59°07' E 009°37'0 0.0
2017-Sep-17 19:58N 59°07' E 009°37'0 0.0
2017-Sep-17 19:28N 59°07' E 009°37'0 0.0
2017-Sep-17 18:58N 59°07' E 009°37'0 0.0
2017-Sep-17 18:28N 59°07' E 009°37'0 0.0
2017-Sep-17 17:58N 59°07' E 009°37'0 0.0
2017-Sep-17 17:28N 59°07' E 009°37'0 0.0
2017-Sep-17 16:58N 59°07' E 009°37'0 0.0
2017-Sep-17 16:28N 59°07' E 009°37'0 0.0
2017-Sep-17 15:58N 59°07' E 009°37'0 0.0
2017-Sep-17 15:28N 59°07' E 009°37'0 0.0
2017-Sep-17 14:58N 59°07' E 009°37'0 0.0
2017-Sep-17 14:28N 59°07' E 009°37'0 0.0
2017-Sep-17 13:58N 59°07' E 009°37'0 0.0
2017-Sep-17 13:28N 59°07' E 009°37'0 0.0
2017-Sep-17 12:58N 59°07' E 009°37'0 0.0
2017-Sep-17 12:28N 59°07' E 009°37'0 0.0
2017-Sep-17 11:58N 59°07' E 009°37'0 0.0
2017-Sep-17 11:28N 59°07' E 009°37'0 0.0
2017-Sep-17 10:58N 59°07' E 009°37'0 0.0
2017-Sep-17 10:28N 59°07' E 009°37'0 0.0
2017-Sep-17 09:58N 59°07' E 009°37'0 0.0
2017-Sep-17 09:28N 59°07' E 009°37'0 0.0
2017-Sep-17 08:58N 59°07' E 009°37'0 0.0
2017-Sep-17 08:28N 59°07' E 009°37'0 0.0
2017-Sep-17 07:58N 59°07' E 009°37'0 0.0
2017-Sep-17 07:28N 59°07' E 009°37'0 0.0
2017-Sep-17 06:58N 59°07' E 009°37'0 0.0
2017-Sep-17 06:28N 59°07' E 009°37'0 0.0
2017-Sep-17 05:58N 59°07' E 009°37'0 0.0
2017-Sep-17 05:28N 59°07' E 009°37'0 0.0
2017-Sep-17 04:58N 59°07' E 009°37'0 0.0
2017-Sep-17 04:28N 59°07' E 009°37'0 0.0
2017-Sep-17 03:58N 59°07' E 009°37'0 0.0
2017-Sep-17 03:28N 59°07' E 009°37'0 0.0
2017-Sep-17 02:58N 59°07' E 009°37'0 0.0
2017-Sep-17 02:28N 59°07' E 009°37'0 0.0
2017-Sep-17 01:58N 59°07' E 009°37'0 0.0
2017-Sep-17 01:28N 59°07' E 009°37'0 0.0
2017-Sep-17 00:58N 59°07' E 009°37'0 0.0
2017-Sep-17 00:28N 59°07' E 009°37'0 0.0
2017-Sep-16 23:58N 59°07' E 009°37'0 0.0
2017-Sep-16 23:28N 59°07' E 009°37'0 0.0
2017-Sep-16 22:58N 59°07' E 009°37'0 0.0
2017-Sep-16 22:28N 59°07' E 009°37'  

Dump ship's entire track history